Dakin Peak, Santa Catalina Island Weather observations

Data are for 10 minute period ending at time listed.
 Day   Time   Solar   Ave.   Ave.  Ave.  Vector    Max.   Stn.    Total
  of    of     Rad.   Air    Rel.  Wind   Wind     Wind   Baro.  Precip.
Year   Day            Temp.  Hum.  Speed  Dir.     Gust   Pres.         
2016   (PST)   W/m2    F      %     mph   deg.      mph    mb.     in.  
------------------------------------------------------------------------
 336   19:50    0.0    49   84.0     9    278.5    10.2    999.0   0.00  
 336   20:00    0.0    50   82.1     7    284.8     8.4    999.0   0.00  
 336   20:10    0.0    50   77.4     7    288.2     7.8    999.0   0.00  
 336   20:20    0.0    50   78.5     9    285.8    10.8    999.0   0.00  
 336   20:30    0.0    50   68.6    10    281.3    11.3    999.0   0.00  
 336   20:40    0.0    50   65.0     9    279.0    10.8    999.0   0.00  
 336   20:50    0.0    50   63.5     9    276.7    10.8    999.0   0.00  
 336   21:00    0.0    50   61.2    10    276.6    13.1    999.0   0.00  
 336   21:10    0.0    51   58.0    12    273.9    15.5    999.0   0.00  
 336   21:20    0.0    51   58.3    11    271.9    13.7    999.0   0.00  
 336   21:30    0.0    51   58.2    12    267.5    15.5    999.0   0.00  
 336   21:40    0.0    51   58.8    12    267.6    14.9    999.0   0.00  
 336   21:50    0.0    51   58.2    11    264.9    13.7    999.0   0.00  
 336   22:00    0.0    51   60.8    10    259.7    11.9    999.0   0.00  
 336   22:10    0.0    50   62.5    10    262.6    12.5    999.0   0.00  
 336   22:20    0.0    50   66.3    10    269.4    11.9    999.0   0.00  
 336   22:30    0.0    50   68.1    11    263.0    13.1    999.0   0.00  
 336   22:40    0.0    50   70.5    11    266.2    12.5    999.0   0.00  
 336   22:50    0.0    50   73.6    10    271.0    12.5    999.0   0.00  
 336   23:00    0.0    49   74.5     9    269.0    10.8    999.0   0.00  
 336   23:10    0.0    49   75.9     9    272.3    10.2    999.0   0.00  
 336   23:20    0.0    49   74.9     8    272.5     9.0    999.0   0.00  
 336   23:30    0.0    50   71.8     6    275.7     7.8    999.0   0.00  
 336   23:40    0.0    50   68.4     4    269.6     4.8    999.0   0.00  
 336   23:50    0.0    50   65.1     2    258.2     3.0    999.0   0.00  
 337    0:00    0.0    51   63.4     4    267.3     5.4    999.0   0.00  
 337    0:10    0.0    51   61.8     6    268.1     6.6    999.0   0.00  
 337    0:20    0.0    51   62.1     7    267.8     9.6    999.0   0.00  
 337    0:30    0.0    51   57.6     8    267.8     9.6    999.0   0.00  
 337    0:40    0.0    50   57.2     8    273.7     9.0    999.0   0.00  
 337    0:50    0.0    52   49.3     6    307.1     8.4    999.0   0.00  
 337    1:00    0.0    51   55.3     6    319.8     7.2    999.0   0.00  
 337    1:10    0.0    50   67.2     6    317.7     8.4    999.0   0.00  
 337    1:20    0.0    51   74.3     5    317.6     7.2    999.0   0.00  
 337    1:30    0.0    51   65.5     5    284.4     6.6    999.0   0.00  
 337    1:40    0.0    50   68.7     7    315.7     9.6    999.0   0.00  
 337    1:50    0.0    50   74.7    11    317.6    13.7    999.0   0.00  
 337    2:00    0.0    50   75.2    12    316.7    13.7    999.0   0.00  
 337    2:10    0.0    50   76.7    12    318.4    13.7    999.0   0.00  
 337    2:20    0.0    50   75.2    11    315.2    12.5    999.0   0.00  
 337    2:30    0.0    51   68.7    10    318.4    11.9    999.0   0.00  
 337    2:40    0.0    50   72.1    10    308.9    10.8    999.0   0.00  
 337    2:50    0.0    50   75.0     9    317.0    10.8    999.0   0.00  
 337    3:00    0.0    50   75.9    10    319.0    11.3    999.0   0.00  
 337    3:10    0.0    50   81.8    10    317.0    12.5    999.0   0.00  
 337    3:20    0.0    49   86.4     9    316.7    10.2    999.0   0.00  
 337    3:30    0.0    50   83.8     8    309.6     9.6    999.0   0.00  
 337    3:40    0.0    50   75.6     8    312.9    10.2    999.0   0.00  
 337    3:50    0.0    50   72.0    10    300.5    12.5    999.0   0.00  
 337    4:00    0.0    50   67.3    10    297.1    12.5    999.0   0.00  
 337    4:10    0.0    50   62.7    10    319.7    12.5    999.0   0.00  
 337    4:20    0.0    50   60.2    10    321.1    12.5    999.0   0.00  
 337    4:30    0.0    50   58.3    10    319.9    13.1    999.0   0.00  
 337    4:40    0.0    50   61.6    10    316.9    12.5    999.0   0.00  
 337    4:50    0.0    50   62.9     8    325.4    10.2    999.0   0.00  
 337    5:00    0.0    50   61.0     8      4.4    12.5    999.0   0.00  
 337    5:10    0.0    50   58.2     8     31.9    13.1    999.0   0.00  
 337    5:20    0.0    50   62.5     9     22.0    13.1    999.0   0.00  
 337    5:30    0.0    50   60.5     8     37.9    10.8    999.0   0.00  
 337    5:40    0.0    50   69.1     8     15.1    10.2    999.0   0.00  
 337    5:50    0.0    49   74.3     7     14.5    10.2    999.0   0.00  
 337    6:00    0.0    49   72.0     8     29.0    11.3    999.0   0.00  
 337    6:10    0.0    49   77.5     8     16.9    11.3    999.0   0.00  
 337    6:20    0.0    50   74.0     9     20.0    11.9    999.0   0.00  
 337    6:30    0.0    49   80.0    10     11.9    14.3    999.0   0.00  
 337    6:40    1.0    49   76.0    10     29.7    14.9    999.0   0.00  
 337    6:50    6.0    49   78.5    10     26.9    14.9    999.0   0.00  
 337    7:00   15.0    49   80.5    10     27.6    14.3    999.0   0.00  
 337    7:10   31.0    50   58.6    12     40.4    20.3    999.0   0.00  
 337    7:20   52.0    50   48.4    12     49.0    18.5    999.0   0.00  
 337    7:30   80.0    50   48.6    11     48.6    16.1    999.0   0.00  
 337    7:40  105.0    50   47.9    11     51.7    19.1    999.0   0.00  
 337    7:50  128.0    50   48.7    12     50.5    19.1    999.0   0.00  
 337    8:00  153.0    51   44.9    14     48.0    22.1    999.0   0.00  
 337    8:10  176.0    51   44.9    10     39.6    16.7    999.0   0.00  
 337    8:20  201.0    51   44.4     8      8.9    15.5    999.0   0.00  
 337    8:30  224.0    52   45.5     7     21.2    13.7    999.0   0.00  
 337    8:40  244.0    52   46.1     8     40.1    18.5    999.0   0.00  
 337    8:50  267.0    52   46.3    12     54.2    19.7    999.0   0.00  
 337    9:00  289.0    53   45.1    14     58.6    21.5    999.0   0.00  
 337    9:10  310.0    54   40.6    12     66.8    18.5    999.0   0.00  
 337    9:20  331.0    53   39.9    13     62.1    24.5    999.0   0.00  
 337    9:30  350.0    54   37.6    13     65.9    22.7    999.0   0.00  
 337    9:40  367.0    53   39.0    12     62.0    20.3    999.0   0.00  
 337    9:50  383.0    53   36.4    17     57.4    28.0    999.0   0.00  
 337   10:00  398.0    53   37.0    17     57.8    32.2    999.0   0.00  
 337   10:10  412.0    55   34.2    14     81.4    25.6    999.0   0.00  
 337   10:20  424.0    55   33.4    14     66.5    21.5    999.0   0.00  
 337   10:30  434.0    55   33.4    13     66.8    25.0    999.0   0.00  
 337   10:40  443.0    55   34.3    15     67.7    25.0    999.0   0.00  
 337   10:50  451.0    54   34.9    17     61.5    31.0    999.0   0.00  
 337   11:00  459.0    55   32.6    14     73.9    25.0    999.0   0.00  
 337   11:10  464.0    56   32.0    13     77.6    21.5    999.0   0.00  
 337   11:20  469.0    55   33.8    15     61.7    31.6    999.0   0.00  
 337   11:30  473.0    56   33.7    14     65.5    21.5    999.0   0.00  
 337   11:40  475.0    55   32.6    14     58.4    28.0    999.0   0.00  
 337   11:50  476.0    55   31.0    16     59.1    28.0    999.0   0.00  
 337   12:00  475.0    55   31.4    16     55.0    25.6    999.0   0.00  
 337   12:10  472.0    55   29.0    11     33.9    22.1    999.0   0.00  
 337   12:20  468.0    54   28.2    10      7.1    20.9    999.0   0.00  
 337   12:30  464.0    55   28.5     9      7.7    19.7    999.0   0.00  
 337   12:40  458.0    54   27.5    11      3.9    17.9    999.0   0.00  
 337   12:50  451.0    54   27.6    10      0.3    17.9    999.0   0.00  
 337   13:00  441.0    54   28.9    11      1.1    16.7    999.0   0.00  
 337   13:10  432.0    54   27.4     9    345.7    14.3    999.0   0.00  
 337   13:20  422.0    54   25.3     7    350.0    12.5    999.0   0.00  
 337   13:30  409.0    54   24.7     8    348.0    11.3    999.0   0.00  
 337   13:40  396.0    54   24.9     7    356.5    11.3    999.0   0.00  
 337   13:50  379.0    55   23.9     7    349.5    12.5    999.0   0.00  
 337   14:00  362.0    54   24.8     8    351.6    14.3    999.0   0.00  
 337   14:10  344.0    54   24.7     7    355.0    13.1    999.0   0.00  
 337   14:20  223.0    54   24.6     8    354.0    14.9    999.0   0.00  
 337   14:30  181.0    54   25.3    11    338.7    18.5    999.0   0.00  
 337   14:40  202.0    54   25.8    10    335.1    15.5    999.0   0.00  
 337   14:50  262.0    54   25.7    10    343.7    14.3    999.0   0.00  
 337   15:00  240.0    54   25.1     9    339.9    13.7    999.0   0.00  
 337   15:10  215.0    54   25.0     8    326.1    11.9    999.0   0.00  
 337   15:20  192.0    55   25.4     8    325.9    10.8    999.0   0.00  
 337   15:30  166.0    54   26.7     9    316.7    13.1    999.0   0.00  
 337   15:40  141.0    54   27.1     7    329.5     9.6    999.0   0.00  
 337   15:50  116.0    54   27.3     6    319.4     9.0    999.0   0.00  
 337   16:00   94.0    55   27.7     6    290.8     7.8    999.0   0.00  
 337   16:10   69.0    54   28.4     6    313.8     8.4    999.0   0.00  
 337   16:20   45.0    53   27.8     6    345.2     8.4    999.0   0.00  
 337   16:30   28.0    53   26.6     7     13.8    12.5    999.0   0.00  
 337   16:40   14.0    53   25.2    10     37.3    15.5    999.0   0.00  
 337   16:50    6.0    53   26.7     9     40.5    13.7    999.0   0.00  
 337   17:00    1.0    53   28.0     9     28.4    14.9    999.0   0.00  
 337   17:10    0.0    53   29.3     9     24.2    16.1    999.0   0.00  
 337   17:20    0.0    53   29.3    11     25.5    16.1    999.0   0.00  
 337   17:30    0.0    53   28.8     9     31.5    13.7    999.0   0.00  
 337   17:40    0.0    53   28.7    12     44.8    19.7    999.0   0.00  
 337   17:50    0.0    53   30.6    13     47.8    20.9    999.0   0.00  
 337   18:00    0.0    52   33.2    11     52.9    17.3    999.0   0.00  
 337   18:10    0.0    52   37.5     8     39.5    13.7    999.0   0.00  
 337   18:20    0.0    52   39.3    11     36.2    17.9    999.0   0.00  
 337   18:30    0.0    52   37.7    14     45.5    26.8    999.0   0.00  
 337   18:40    0.0    52   41.0    12     52.8    21.5    999.0   0.00  
 337   18:50    0.0    52   39.7    12     64.6    19.7    999.0   0.00  
 337   19:00    0.0    52   37.6    14     63.5    34.0    999.0   0.00  
 337   19:10    0.0    51   36.3    14     61.2    37.0    999.0   0.00  
 337   19:20    0.0    52   36.2    19     58.2    36.4    999.0   0.00  
 337   19:30    0.0    52   36.2    17     57.7    47.1    999.0   0.00  
 337   19:40    0.0    51   37.5    17     58.4    35.2    999.0   0.00  

Return to Dakin Peak graphs page.


Western Regional Climate Center,wrcc@dri.edu